Elk Mills, MD (21920)

3:34 AM EDT on July 06, 2015 (GMT -0400)
Stine Haskell Research Center | | Change Station
CLOSE
Current Station
Personal Weather Station
Location: Newark, DE
Elevation: 115 ft
Nearby Weather Stations

Elev 115 ft 39.66 °N, 75.79 °W | Updated 11 minutes ago

Partly Cloudy
Partly Cloudy
69.6 °F
Feels Like 69.6 °F
N
0.0
Wind Variable Wind from West

Today
High -- | Low -- °F
--% Chance of Precip.
Yesterday
High -- | Low -- °F
Precip. -- in
5:41 AM 8:34 PM
Waning Gibbous, 78% visible
Pressure 30.14 in
Visibility 10.0 miles
Clouds Few 800 ft
Overcast 7500 ft
Dew Point 69 °F
Humidity 99%
Rainfall 0.00 in
Snow Depth Not available.
UV 0 out of 12
Pollen 3.90 out of 12
Air Quality Not available.
Flu Activity Not available.
METAR KILG 060651Z 00000KT 10SM FEW008 OVC075 23/22 A3015 RMK AO2 SLP207 T02330217

More Conditions Fewer Conditions

Pressure 30.14 in
Visibility 10.0 miles
Clouds Few 800 ft
Overcast 7500 ft
Dew Point 69 °F
Humidity 99%
Rainfall 0.00 in
Snow Depth Not available.
UV 0 out of 12
Pollen 3.90 out of 12
Air Quality Not available.
Flu Activity Not available.
METAR KILG 060651Z 00000KT 10SM FEW008 OVC075 23/22 A3015 RMK AO2 SLP207 T02330217

More Conditions Fewer Conditions

10-Day Weather Forecast

×

Almanac

Astronomy

Jul. 06, 2015 Rise Set
Actual Time
Civil Twilight
Nautical Twilight
Astronomical Twilight
Moon
Length of Visible Light
Length of Day
Tomorrow will be .
, % of the Moon is Illuminated

Today's Extremes

State Highs State Lows

Community

WunderPhotos

Upload Photos

1,835,507 photos uploaded!

WunderBlogs® & News

Nearby

Air Quality

  Air Quality AQ Index Pollutant
Not available.

Snow Depth

Station Depth Elevation

Earthquake Activity

City Distance Mag. Time & Date
Minimum magnitude displayed is 2.5.

Coastal Water Temperatures

Place Temperature

Stations

Nearby Weather Stations

Station Location Temp. Windchill Dew Point Humidity Wind Precip. Elev Updated Type